sensor_id;sensor_type;location;lat;lon;timestamp;P1;durP1;ratioP1;P2;durP2;ratioP2
22378;SDS011;11357;49.990;7.370;2023-02-26T00:01:39;11.53;;;3.00;;
22378;SDS011;11357;49.990;7.370;2023-02-26T00:04:06;8.60;;;2.50;;
22378;SDS011;11357;49.990;7.370;2023-02-26T00:06:33;12.27;;;2.87;;
22378;SDS011;11357;49.990;7.370;2023-02-26T00:09:01;4.90;;;2.30;;
22378;SDS011;11357;49.990;7.370;2023-02-26T00:11:28;6.17;;;2.20;;
22378;SDS011;11357;49.990;7.370;2023-02-26T00:13:54;2.87;;;2.07;;
22378;SDS011;11357;49.990;7.370;2023-02-26T00:16:28;7.23;;;2.37;;
22378;SDS011;11357;49.990;7.370;2023-02-26T00:18:56;5.40;;;2.33;;
22378;SDS011;11357;49.990;7.370;2023-02-26T00:21:24;7.83;;;2.93;;
22378;SDS011;11357;49.990;7.370;2023-02-26T00:23:51;8.23;;;2.30;;
22378;SDS011;11357;49.990;7.370;2023-02-26T00:26:18;7.10;;;2.37;;
22378;SDS011;11357;49.990;7.370;2023-02-26T00:28:44;5.83;;;2.47;;
22378;SDS011;11357;49.990;7.370;2023-02-26T00:31:10;11.60;;;2.60;;
22378;SDS011;11357;49.990;7.370;2023-02-26T00:33:38;13.27;;;2.70;;
22378;SDS011;11357;49.990;7.370;2023-02-26T00:38:56;6.37;;;2.50;;
22378;SDS011;11357;49.990;7.370;2023-02-26T00:41:28;7.27;;;2.80;;
22378;SDS011;11357;49.990;7.370;2023-02-26T00:43:54;5.53;;;2.07;;
22378;SDS011;11357;49.990;7.370;2023-02-26T00:46:21;8.13;;;2.37;;
22378;SDS011;11357;49.990;7.370;2023-02-26T00:49:02;9.13;;;2.20;;
22378;SDS011;11357;49.990;7.370;2023-02-26T00:51:48;6.13;;;2.23;;
22378;SDS011;11357;49.990;7.370;2023-02-26T00:54:24;3.10;;;2.17;;
22378;SDS011;11357;49.990;7.370;2023-02-26T00:56:52;6.60;;;2.43;;
22378;SDS011;11357;49.990;7.370;2023-02-26T00:59:19;8.07;;;2.60;;
22378;SDS011;11357;49.990;7.370;2023-02-26T01:01:45;6.13;;;2.10;;
22378;SDS011;11357;49.990;7.370;2023-02-26T01:04:12;11.00;;;2.17;;
22378;SDS011;11357;49.990;7.370;2023-02-26T01:06:44;4.80;;;2.37;;
22378;SDS011;11357;49.990;7.370;2023-02-26T01:11:45;6.30;;;2.20;;
22378;SDS011;11357;49.990;7.370;2023-02-26T01:14:11;4.93;;;2.03;;
22378;SDS011;11357;49.990;7.370;2023-02-26T01:16:41;3.93;;;1.97;;
22378;SDS011;11357;49.990;7.370;2023-02-26T01:19:19;2.77;;;1.80;;
22378;SDS011;11357;49.990;7.370;2023-02-26T01:22:02;5.83;;;1.53;;
22378;SDS011;11357;49.990;7.370;2023-02-26T01:24:36;8.40;;;2.00;;
22378;SDS011;11357;49.990;7.370;2023-02-26T01:27:02;6.57;;;1.83;;
22378;SDS011;11357;49.990;7.370;2023-02-26T01:34:54;6.23;;;2.20;;
22378;SDS011;11357;49.990;7.370;2023-02-26T01:43:06;5.93;;;2.20;;
22378;SDS011;11357;49.990;7.370;2023-02-26T01:51:13;8.63;;;2.63;;
22378;SDS011;11357;49.990;7.370;2023-02-26T01:53:39;9.00;;;3.00;;
22378;SDS011;11357;49.990;7.370;2023-02-26T01:56:10;16.70;;;3.00;;
22378;SDS011;11357;49.990;7.370;2023-02-26T01:58:41;4.97;;;2.50;;
22378;SDS011;11357;49.990;7.370;2023-02-26T02:01:10;5.47;;;2.37;;
22378;SDS011;11357;49.990;7.370;2023-02-26T02:03:37;5.80;;;2.33;;
22378;SDS011;11357;49.990;7.370;2023-02-26T02:06:06;4.10;;;2.30;;
22378;SDS011;11357;49.990;7.370;2023-02-26T02:08:35;9.77;;;2.80;;
22378;SDS011;11357;49.990;7.370;2023-02-26T02:11:02;6.17;;;2.43;;
22378;SDS011;11357;49.990;7.370;2023-02-26T02:13:47;5.73;;;2.27;;
22378;SDS011;11357;49.990;7.370;2023-02-26T02:16:26;8.47;;;2.63;;
22378;SDS011;11357;49.990;7.370;2023-02-26T02:33:21;5.70;;;2.57;;
22378;SDS011;11357;49.990;7.370;2023-02-26T02:35:56;4.60;;;2.07;;
22378;SDS011;11357;49.990;7.370;2023-02-26T02:38:32;4.37;;;2.47;;
22378;SDS011;11357;49.990;7.370;2023-02-26T02:41:21;8.17;;;2.57;;
22378;SDS011;11357;49.990;7.370;2023-02-26T02:43:57;8.97;;;2.97;;
22378;SDS011;11357;49.990;7.370;2023-02-26T02:46:27;7.77;;;2.77;;
22378;SDS011;11357;49.990;7.370;2023-02-26T02:49:10;9.17;;;2.93;;
22378;SDS011;11357;49.990;7.370;2023-02-26T02:51:47;8.57;;;3.17;;
22378;SDS011;11357;49.990;7.370;2023-02-26T02:54:24;7.70;;;2.37;;
22378;SDS011;11357;49.990;7.370;2023-02-26T02:57:00;7.57;;;3.10;;
22378;SDS011;11357;49.990;7.370;2023-02-26T02:59:33;7.13;;;3.10;;
22378;SDS011;11357;49.990;7.370;2023-02-26T03:02:09;7.27;;;2.77;;
22378;SDS011;11357;49.990;7.370;2023-02-26T03:04:45;11.90;;;3.67;;
22378;SDS011;11357;49.990;7.370;2023-02-26T03:07:12;9.70;;;4.17;;
22378;SDS011;11357;49.990;7.370;2023-02-26T03:09:38;5.47;;;3.50;;
22378;SDS011;11357;49.990;7.370;2023-02-26T03:12:04;8.40;;;4.10;;
22378;SDS011;11357;49.990;7.370;2023-02-26T03:14:30;6.03;;;3.13;;
22378;SDS011;11357;49.990;7.370;2023-02-26T03:25:26;7.93;;;3.33;;
22378;SDS011;11357;49.990;7.370;2023-02-26T03:30:53;7.17;;;3.70;;
22378;SDS011;11357;49.990;7.370;2023-02-26T03:33:25;6.60;;;3.20;;
22378;SDS011;11357;49.990;7.370;2023-02-26T03:36:19;10.33;;;4.13;;
22378;SDS011;11357;49.990;7.370;2023-02-26T03:39:08;9.03;;;3.60;;
22378;SDS011;11357;49.990;7.370;2023-02-26T03:41:38;12.60;;;4.23;;
22378;SDS011;11357;49.990;7.370;2023-02-26T03:44:18;8.97;;;4.40;;
22378;SDS011;11357;49.990;7.370;2023-02-26T03:46:59;8.10;;;4.33;;
22378;SDS011;11357;49.990;7.370;2023-02-26T03:49:33;9.40;;;4.87;;
22378;SDS011;11357;49.990;7.370;2023-02-26T03:52:03;13.70;;;4.33;;
22378;SDS011;11357;49.990;7.370;2023-02-26T03:54:32;10.63;;;5.23;;
22378;SDS011;11357;49.990;7.370;2023-02-26T03:57:04;13.43;;;5.00;;
22378;SDS011;11357;49.990;7.370;2023-02-26T03:59:29;6.40;;;4.20;;
22378;SDS011;11357;49.990;7.370;2023-02-26T04:02:18;10.33;;;4.70;;
22378;SDS011;11357;49.990;7.370;2023-02-26T04:05:29;10.27;;;4.47;;
22378;SDS011;11357;49.990;7.370;2023-02-26T04:07:35;7.70;;;4.10;;
22378;SDS011;11357;49.990;7.370;2023-02-26T04:10:01;9.43;;;4.37;;
22378;SDS011;11357;49.990;7.370;2023-02-26T04:12:27;10.33;;;4.57;;
22378;SDS011;11357;49.990;7.370;2023-02-26T04:14:54;7.90;;;4.57;;
22378;SDS011;11357;49.990;7.370;2023-02-26T04:17:20;7.43;;;5.00;;
22378;SDS011;11357;49.990;7.370;2023-02-26T04:19:46;7.40;;;4.00;;
22378;SDS011;11357;49.990;7.370;2023-02-26T04:22:12;9.63;;;4.53;;
22378;SDS011;11357;49.990;7.370;2023-02-26T04:24:37;8.90;;;4.17;;
22378;SDS011;11357;49.990;7.370;2023-02-26T04:27:03;9.07;;;4.23;;
22378;SDS011;11357;49.990;7.370;2023-02-26T04:29:29;8.43;;;4.17;;
22378;SDS011;11357;49.990;7.370;2023-02-26T04:31:55;13.80;;;4.13;;
22378;SDS011;11357;49.990;7.370;2023-02-26T04:34:20;10.97;;;4.10;;
22378;SDS011;11357;49.990;7.370;2023-02-26T04:36:46;8.40;;;4.53;;
22378;SDS011;11357;49.990;7.370;2023-02-26T04:39:12;9.00;;;3.97;;
22378;SDS011;11357;49.990;7.370;2023-02-26T04:41:38;8.13;;;3.90;;
22378;SDS011;11357;49.990;7.370;2023-02-26T04:44:04;6.83;;;3.83;;
22378;SDS011;11357;49.990;7.370;2023-02-26T04:46:30;6.60;;;3.87;;
22378;SDS011;11357;49.990;7.370;2023-02-26T04:48:56;3.17;;;2.47;;
22378;SDS011;11357;49.990;7.370;2023-02-26T04:51:22;8.17;;;3.20;;
22378;SDS011;11357;49.990;7.370;2023-02-26T04:53:48;6.23;;;2.63;;
22378;SDS011;11357;49.990;7.370;2023-02-26T04:56:14;6.43;;;3.43;;
22378;SDS011;11357;49.990;7.370;2023-02-26T04:58:40;5.57;;;2.80;;
22378;SDS011;11357;49.990;7.370;2023-02-26T05:01:05;10.17;;;3.97;;
22378;SDS011;11357;49.990;7.370;2023-02-26T05:03:31;8.33;;;3.57;;
22378;SDS011;11357;49.990;7.370;2023-02-26T05:05:57;9.73;;;3.77;;
22378;SDS011;11357;49.990;7.370;2023-02-26T05:08:23;13.57;;;3.77;;
22378;SDS011;11357;49.990;7.370;2023-02-26T05:10:49;6.30;;;3.23;;
22378;SDS011;11357;49.990;7.370;2023-02-26T05:13:16;8.60;;;3.00;;
22378;SDS011;11357;49.990;7.370;2023-02-26T05:15:43;6.93;;;4.20;;
22378;SDS011;11357;49.990;7.370;2023-02-26T05:18:08;9.13;;;3.40;;
22378;SDS011;11357;49.990;7.370;2023-02-26T05:20:35;16.47;;;3.93;;
22378;SDS011;11357;49.990;7.370;2023-02-26T05:23:00;8.67;;;3.43;;
22378;SDS011;11357;49.990;7.370;2023-02-26T05:25:27;4.37;;;2.70;;
22378;SDS011;11357;49.990;7.370;2023-02-26T05:27:53;6.90;;;2.93;;
22378;SDS011;11357;49.990;7.370;2023-02-26T05:30:20;10.97;;;3.90;;
22378;SDS011;11357;49.990;7.370;2023-02-26T05:32:46;4.73;;;2.77;;
22378;SDS011;11357;49.990;7.370;2023-02-26T05:35:12;5.07;;;3.07;;
22378;SDS011;11357;49.990;7.370;2023-02-26T05:37:38;5.13;;;2.80;;
22378;SDS011;11357;49.990;7.370;2023-02-26T05:40:05;6.97;;;3.30;;
22378;SDS011;11357;49.990;7.370;2023-02-26T05:42:35;6.30;;;3.07;;
22378;SDS011;11357;49.990;7.370;2023-02-26T05:45:02;7.47;;;3.17;;
22378;SDS011;11357;49.990;7.370;2023-02-26T05:47:30;4.73;;;3.47;;
22378;SDS011;11357;49.990;7.370;2023-02-26T05:49:56;5.77;;;2.50;;
22378;SDS011;11357;49.990;7.370;2023-02-26T05:52:22;7.50;;;3.17;;
22378;SDS011;11357;49.990;7.370;2023-02-26T05:54:48;5.20;;;2.50;;
22378;SDS011;11357;49.990;7.370;2023-02-26T05:57:14;8.10;;;4.03;;
22378;SDS011;11357;49.990;7.370;2023-02-26T05:59:39;6.37;;;3.40;;
22378;SDS011;11357;49.990;7.370;2023-02-26T06:02:05;5.80;;;3.20;;
22378;SDS011;11357;49.990;7.370;2023-02-26T06:04:31;6.33;;;3.07;;
22378;SDS011;11357;49.990;7.370;2023-02-26T06:06:57;5.67;;;3.10;;
22378;SDS011;11357;49.990;7.370;2023-02-26T06:09:22;6.27;;;3.63;;
22378;SDS011;11357;49.990;7.370;2023-02-26T06:11:51;6.77;;;3.23;;
22378;SDS011;11357;49.990;7.370;2023-02-26T06:14:17;6.33;;;2.63;;
22378;SDS011;11357;49.990;7.370;2023-02-26T06:16:43;5.20;;;2.80;;
22378;SDS011;11357;49.990;7.370;2023-02-26T06:19:08;4.90;;;3.00;;
22378;SDS011;11357;49.990;7.370;2023-02-26T06:21:34;8.00;;;3.07;;
22378;SDS011;11357;49.990;7.370;2023-02-26T06:24:00;7.20;;;3.20;;
22378;SDS011;11357;49.990;7.370;2023-02-26T06:26:25;8.03;;;3.30;;
22378;SDS011;11357;49.990;7.370;2023-02-26T06:28:51;11.47;;;3.67;;
22378;SDS011;11357;49.990;7.370;2023-02-26T06:31:17;5.80;;;3.23;;
22378;SDS011;11357;49.990;7.370;2023-02-26T06:33:43;6.30;;;2.83;;
22378;SDS011;11357;49.990;7.370;2023-02-26T06:36:08;7.00;;;3.17;;
22378;SDS011;11357;49.990;7.370;2023-02-26T06:38:34;7.67;;;3.77;;
22378;SDS011;11357;49.990;7.370;2023-02-26T06:41:00;10.23;;;4.13;;
22378;SDS011;11357;49.990;7.370;2023-02-26T06:43:25;5.43;;;3.47;;
22378;SDS011;11357;49.990;7.370;2023-02-26T06:45:51;9.80;;;4.23;;
22378;SDS011;11357;49.990;7.370;2023-02-26T06:48:17;7.97;;;3.53;;
22378;SDS011;11357;49.990;7.370;2023-02-26T06:50:43;6.43;;;3.90;;
22378;SDS011;11357;49.990;7.370;2023-02-26T06:53:09;5.93;;;3.67;;
22378;SDS011;11357;49.990;7.370;2023-02-26T06:55:35;7.23;;;3.40;;
22378;SDS011;11357;49.990;7.370;2023-02-26T06:58:01;7.17;;;4.23;;
22378;SDS011;11357;49.990;7.370;2023-02-26T07:00:26;8.37;;;3.70;;
22378;SDS011;11357;49.990;7.370;2023-02-26T07:02:52;6.17;;;4.13;;
22378;SDS011;11357;49.990;7.370;2023-02-26T07:05:18;5.80;;;3.63;;
22378;SDS011;11357;49.990;7.370;2023-02-26T07:07:44;8.67;;;3.63;;
22378;SDS011;11357;49.990;7.370;2023-02-26T07:10:10;8.93;;;4.37;;
22378;SDS011;11357;49.990;7.370;2023-02-26T07:12:36;9.60;;;4.37;;
22378;SDS011;11357;49.990;7.370;2023-02-26T07:15:03;7.43;;;4.43;;
22378;SDS011;11357;49.990;7.370;2023-02-26T07:17:30;10.73;;;5.07;;
22378;SDS011;11357;49.990;7.370;2023-02-26T07:19:56;8.57;;;4.90;;
22378;SDS011;11357;49.990;7.370;2023-02-26T07:22:22;9.03;;;4.57;;
22378;SDS011;11357;49.990;7.370;2023-02-26T07:24:48;6.47;;;4.63;;
22378;SDS011;11357;49.990;7.370;2023-02-26T07:27:15;5.77;;;4.07;;
22378;SDS011;11357;49.990;7.370;2023-02-26T07:29:41;8.87;;;4.33;;
22378;SDS011;11357;49.990;7.370;2023-02-26T07:32:06;5.47;;;4.10;;
22378;SDS011;11357;49.990;7.370;2023-02-26T07:34:32;6.23;;;3.73;;
22378;SDS011;11357;49.990;7.370;2023-02-26T07:36:58;10.23;;;4.43;;
22378;SDS011;11357;49.990;7.370;2023-02-26T07:39:25;7.60;;;4.53;;
22378;SDS011;11357;49.990;7.370;2023-02-26T07:41:51;6.83;;;4.03;;
22378;SDS011;11357;49.990;7.370;2023-02-26T07:44:17;7.20;;;4.77;;
22378;SDS011;11357;49.990;7.370;2023-02-26T07:46:43;8.23;;;4.03;;
22378;SDS011;11357;49.990;7.370;2023-02-26T07:49:09;6.10;;;4.03;;
22378;SDS011;11357;49.990;7.370;2023-02-26T07:51:35;13.10;;;4.53;;
22378;SDS011;11357;49.990;7.370;2023-02-26T07:54:01;10.40;;;4.23;;
22378;SDS011;11357;49.990;7.370;2023-02-26T07:56:27;9.43;;;4.20;;
22378;SDS011;11357;49.990;7.370;2023-02-26T07:58:53;5.30;;;3.43;;
22378;SDS011;11357;49.990;7.370;2023-02-26T08:01:18;7.93;;;3.23;;
22378;SDS011;11357;49.990;7.370;2023-02-26T08:03:44;11.97;;;10.73;;
22378;SDS011;11357;49.990;7.370;2023-02-26T08:06:10;10.30;;;4.27;;
22378;SDS011;11357;49.990;7.370;2023-02-26T08:08:35;8.37;;;4.20;;
22378;SDS011;11357;49.990;7.370;2023-02-26T08:11:01;9.10;;;3.50;;
22378;SDS011;11357;49.990;7.370;2023-02-26T08:13:27;5.53;;;3.53;;
22378;SDS011;11357;49.990;7.370;2023-02-26T08:15:53;5.93;;;4.20;;
22378;SDS011;11357;49.990;7.370;2023-02-26T08:18:18;6.83;;;4.17;;
22378;SDS011;11357;49.990;7.370;2023-02-26T08:20:44;10.00;;;4.00;;
22378;SDS011;11357;49.990;7.370;2023-02-26T08:23:10;5.13;;;3.53;;
22378;SDS011;11357;49.990;7.370;2023-02-26T08:25:36;8.17;;;4.33;;
22378;SDS011;11357;49.990;7.370;2023-02-26T08:28:02;9.83;;;4.40;;
22378;SDS011;11357;49.990;7.370;2023-02-26T08:30:28;9.57;;;4.50;;
22378;SDS011;11357;49.990;7.370;2023-02-26T08:32:54;7.70;;;4.43;;
22378;SDS011;11357;49.990;7.370;2023-02-26T08:35:20;7.00;;;3.77;;
22378;SDS011;11357;49.990;7.370;2023-02-26T08:37:46;11.07;;;3.93;;
22378;SDS011;11357;49.990;7.370;2023-02-26T08:40:12;11.87;;;4.67;;
22378;SDS011;11357;49.990;7.370;2023-02-26T08:42:37;6.20;;;4.10;;
22378;SDS011;11357;49.990;7.370;2023-02-26T08:45:03;8.03;;;3.73;;
22378;SDS011;11357;49.990;7.370;2023-02-26T08:47:29;9.93;;;4.27;;
22378;SDS011;11357;49.990;7.370;2023-02-26T08:49:55;7.67;;;3.73;;
22378;SDS011;11357;49.990;7.370;2023-02-26T08:52:22;6.03;;;3.30;;
22378;SDS011;11357;49.990;7.370;2023-02-26T08:54:48;5.10;;;3.50;;
22378;SDS011;11357;49.990;7.370;2023-02-26T08:57:14;12.43;;;3.90;;
22378;SDS011;11357;49.990;7.370;2023-02-26T08:59:40;7.77;;;3.63;;
22378;SDS011;11357;49.990;7.370;2023-02-26T09:02:06;5.33;;;2.30;;
22378;SDS011;11357;49.990;7.370;2023-02-26T09:04:37;9.60;;;2.70;;
22378;SDS011;11357;49.990;7.370;2023-02-26T09:07:03;4.93;;;2.57;;
22378;SDS011;11357;49.990;7.370;2023-02-26T09:09:28;7.00;;;3.40;;
22378;SDS011;11357;49.990;7.370;2023-02-26T09:11:54;4.07;;;2.20;;
22378;SDS011;11357;49.990;7.370;2023-02-26T09:14:20;6.70;;;1.77;;
22378;SDS011;11357;49.990;7.370;2023-02-26T09:16:46;2.17;;;1.70;;
22378;SDS011;11357;49.990;7.370;2023-02-26T09:19:12;4.20;;;2.17;;
22378;SDS011;11357;49.990;7.370;2023-02-26T09:21:37;4.40;;;1.60;;
22378;SDS011;11357;49.990;7.370;2023-02-26T09:24:03;4.40;;;2.37;;
22378;SDS011;11357;49.990;7.370;2023-02-26T09:26:29;4.27;;;1.90;;
22378;SDS011;11357;49.990;7.370;2023-02-26T09:28:55;3.47;;;1.83;;
22378;SDS011;11357;49.990;7.370;2023-02-26T09:31:21;4.23;;;1.93;;
22378;SDS011;11357;49.990;7.370;2023-02-26T09:33:46;5.73;;;2.03;;
22378;SDS011;11357;49.990;7.370;2023-02-26T09:36:12;5.30;;;1.57;;
22378;SDS011;11357;49.990;7.370;2023-02-26T09:38:38;3.33;;;1.57;;
22378;SDS011;11357;49.990;7.370;2023-02-26T09:41:08;1.97;;;1.60;;
22378;SDS011;11357;49.990;7.370;2023-02-26T09:52:16;3.57;;;1.83;;
22378;SDS011;11357;49.990;7.370;2023-02-26T09:54:47;6.03;;;1.73;;
22378;SDS011;11357;49.990;7.370;2023-02-26T09:57:33;1.90;;;1.43;;
22378;SDS011;11357;49.990;7.370;2023-02-26T10:00:02;1.73;;;1.10;;
22378;SDS011;11357;49.990;7.370;2023-02-26T10:02:52;2.27;;;1.50;;
22378;SDS011;11357;49.990;7.370;2023-02-26T10:08:33;3.53;;;1.50;;
22378;SDS011;11357;49.990;7.370;2023-02-26T10:11:22;1.17;;;1.07;;
22378;SDS011;11357;49.990;7.370;2023-02-26T10:14:13;6.17;;;1.80;;
22378;SDS011;11357;49.990;7.370;2023-02-26T10:16:50;1.90;;;1.10;;
22378;SDS011;11357;49.990;7.370;2023-02-26T10:19:22;3.27;;;1.37;;
22378;SDS011;11357;49.990;7.370;2023-02-26T10:21:56;2.97;;;1.87;;
22378;SDS011;11357;49.990;7.370;2023-02-26T10:24:48;3.53;;;1.70;;
22378;SDS011;11357;49.990;7.370;2023-02-26T10:32:54;5.93;;;1.40;;
22378;SDS011;11357;49.990;7.370;2023-02-26T10:35:36;4.43;;;2.17;;
22378;SDS011;11357;49.990;7.370;2023-02-26T10:38:19;4.77;;;2.03;;
22378;SDS011;11357;49.990;7.370;2023-02-26T10:40:50;1.90;;;1.47;;
22378;SDS011;11357;49.990;7.370;2023-02-26T10:43:48;1.97;;;1.07;;
22378;SDS011;11357;49.990;7.370;2023-02-26T10:51:53;0.90;;;0.77;;
22378;SDS011;11357;49.990;7.370;2023-02-26T10:56:48;3.53;;;1.33;;
22378;SDS011;11357;49.990;7.370;2023-02-26T10:59:14;1.90;;;1.27;;
22378;SDS011;11357;49.990;7.370;2023-02-26T11:01:40;1.57;;;1.20;;
22378;SDS011;11357;49.990;7.370;2023-02-26T11:04:22;2.33;;;1.07;;
22378;SDS011;11357;49.990;7.370;2023-02-26T11:09:37;2.63;;;1.33;;
22378;SDS011;11357;49.990;7.370;2023-02-26T11:14:38;1.50;;;1.00;;
22378;SDS011;11357;49.990;7.370;2023-02-26T11:17:13;1.47;;;1.00;;
22378;SDS011;11357;49.990;7.370;2023-02-26T11:19:54;3.40;;;1.33;;
22378;SDS011;11357;49.990;7.370;2023-02-26T11:22:28;1.73;;;0.80;;
22378;SDS011;11357;49.990;7.370;2023-02-26T11:25:05;2.20;;;1.03;;
22378;SDS011;11357;49.990;7.370;2023-02-26T11:27:34;0.90;;;0.90;;
22378;SDS011;11357;49.990;7.370;2023-02-26T11:30:05;1.43;;;0.97;;
22378;SDS011;11357;49.990;7.370;2023-02-26T11:32:51;0.90;;;0.70;;
22378;SDS011;11357;49.990;7.370;2023-02-26T11:35:22;0.70;;;0.70;;
22378;SDS011;11357;49.990;7.370;2023-02-26T11:38:03;1.97;;;1.20;;
22378;SDS011;11357;49.990;7.370;2023-02-26T11:40:41;2.63;;;1.00;;
22378;SDS011;11357;49.990;7.370;2023-02-26T11:43:14;0.83;;;0.80;;
22378;SDS011;11357;49.990;7.370;2023-02-26T11:45:43;1.33;;;1.00;;
22378;SDS011;11357;49.990;7.370;2023-02-26T11:48:12;0.90;;;0.70;;
22378;SDS011;11357;49.990;7.370;2023-02-26T11:50:48;2.27;;;1.07;;
22378;SDS011;11357;49.990;7.370;2023-02-26T11:56:38;2.03;;;1.10;;
22378;SDS011;11357;49.990;7.370;2023-02-26T11:59:17;1.20;;;0.93;;
22378;SDS011;11357;49.990;7.370;2023-02-26T12:01:48;2.43;;;1.00;;
22378;SDS011;11357;49.990;7.370;2023-02-26T12:04:21;0.97;;;0.80;;
22378;SDS011;11357;49.990;7.370;2023-02-26T12:06:49;1.90;;;0.90;;
22378;SDS011;11357;49.990;7.370;2023-02-26T12:09:16;1.60;;;1.30;;
22378;SDS011;11357;49.990;7.370;2023-02-26T12:14:36;1.80;;;0.80;;
22378;SDS011;11357;49.990;7.370;2023-02-26T12:31:47;1.77;;;0.90;;
22378;SDS011;11357;49.990;7.370;2023-02-26T12:34:26;1.20;;;0.77;;
22378;SDS011;11357;49.990;7.370;2023-02-26T12:37:07;3.77;;;1.30;;
22378;SDS011;11357;49.990;7.370;2023-02-26T12:40:03;2.90;;;1.37;;
22378;SDS011;11357;49.990;7.370;2023-02-26T12:45:16;1.53;;;0.97;;
22378;SDS011;11357;49.990;7.370;2023-02-26T12:53:39;3.67;;;1.87;;
22378;SDS011;11357;49.990;7.370;2023-02-26T13:13:26;2.37;;;1.63;;
22378;SDS011;11357;49.990;7.370;2023-02-26T13:23:47;3.20;;;1.10;;
22378;SDS011;11357;49.990;7.370;2023-02-26T13:26:16;1.90;;;0.70;;
22378;SDS011;11357;49.990;7.370;2023-02-26T13:28:53;1.57;;;1.23;;
22378;SDS011;11357;49.990;7.370;2023-02-26T13:31:30;2.03;;;1.00;;
22378;SDS011;11357;49.990;7.370;2023-02-26T13:37:03;2.17;;;1.10;;
22378;SDS011;11357;49.990;7.370;2023-02-26T13:39:36;3.40;;;1.70;;
22378;SDS011;11357;49.990;7.370;2023-02-26T13:42:41;9.00;;;4.60;;
22378;SDS011;11357;49.990;7.370;2023-02-26T13:53:33;1.97;;;1.20;;
22378;SDS011;11357;49.990;7.370;2023-02-26T13:56:20;3.20;;;1.53;;
22378;SDS011;11357;49.990;7.370;2023-02-26T13:58:48;4.20;;;1.10;;
22378;SDS011;11357;49.990;7.370;2023-02-26T14:01:25;1.10;;;0.90;;
22378;SDS011;11357;49.990;7.370;2023-02-26T14:06:52;1.07;;;0.90;;
22378;SDS011;11357;49.990;7.370;2023-02-26T14:14:40;2.30;;;1.00;;
22378;SDS011;11357;49.990;7.370;2023-02-26T14:20:15;1.40;;;0.93;;
22378;SDS011;11357;49.990;7.370;2023-02-26T14:22:51;2.50;;;1.33;;
22378;SDS011;11357;49.990;7.370;2023-02-26T14:25:39;1.50;;;1.10;;
22378;SDS011;11357;49.990;7.370;2023-02-26T14:30:49;0.70;;;0.70;;
22378;SDS011;11357;49.990;7.370;2023-02-26T14:33:26;1.40;;;0.90;;
22378;SDS011;11357;49.990;7.370;2023-02-26T14:35:53;2.17;;;0.70;;
22378;SDS011;11357;49.990;7.370;2023-02-26T14:38:22;1.00;;;0.77;;
22378;SDS011;11357;49.990;7.370;2023-02-26T14:40:55;2.87;;;1.10;;
22378;SDS011;11357;49.990;7.370;2023-02-26T14:43:35;1.90;;;1.00;;
22378;SDS011;11357;49.990;7.370;2023-02-26T14:46:02;1.23;;;0.90;;
22378;SDS011;11357;49.990;7.370;2023-02-26T14:48:29;3.30;;;0.93;;
22378;SDS011;11357;49.990;7.370;2023-02-26T15:10:06;1.63;;;1.10;;
22378;SDS011;11357;49.990;7.370;2023-02-26T15:18:31;2.90;;;1.20;;
22378;SDS011;11357;49.990;7.370;2023-02-26T15:23:59;1.53;;;1.13;;
22378;SDS011;11357;49.990;7.370;2023-02-26T15:28:59;0.90;;;0.90;;
22378;SDS011;11357;49.990;7.370;2023-02-26T15:31:34;1.13;;;0.90;;
22378;SDS011;11357;49.990;7.370;2023-02-26T15:34:04;1.60;;;1.20;;
22378;SDS011;11357;49.990;7.370;2023-02-26T15:36:30;3.10;;;1.10;;
22378;SDS011;11357;49.990;7.370;2023-02-26T15:38:57;2.50;;;1.23;;
22378;SDS011;11357;49.990;7.370;2023-02-26T15:41:27;2.27;;;1.10;;
22378;SDS011;11357;49.990;7.370;2023-02-26T15:43:55;1.57;;;1.23;;
22378;SDS011;11357;49.990;7.370;2023-02-26T15:46:36;0.83;;;0.83;;
22378;SDS011;11357;49.990;7.370;2023-02-26T15:49:12;3.43;;;1.13;;
22378;SDS011;11357;49.990;7.370;2023-02-26T15:51:53;2.07;;;0.97;;
22378;SDS011;11357;49.990;7.370;2023-02-26T15:54:21;4.83;;;1.20;;
22378;SDS011;11357;49.990;7.370;2023-02-26T15:56:49;3.90;;;1.17;;
22378;SDS011;11357;49.990;7.370;2023-02-26T15:59:17;0.80;;;0.80;;
22378;SDS011;11357;49.990;7.370;2023-02-26T16:01:46;2.10;;;1.43;;
22378;SDS011;11357;49.990;7.370;2023-02-26T16:04:21;1.10;;;1.00;;
22378;SDS011;11357;49.990;7.370;2023-02-26T16:06:54;6.53;;;1.47;;
22378;SDS011;11357;49.990;7.370;2023-02-26T16:09:28;2.50;;;0.93;;
22378;SDS011;11357;49.990;7.370;2023-02-26T16:11:57;0.87;;;0.83;;
22378;SDS011;11357;49.990;7.370;2023-02-26T16:14:28;3.17;;;1.23;;
22378;SDS011;11357;49.990;7.370;2023-02-26T16:16:59;2.67;;;1.10;;
22378;SDS011;11357;49.990;7.370;2023-02-26T16:19:36;1.43;;;0.90;;
22378;SDS011;11357;49.990;7.370;2023-02-26T16:22:07;2.00;;;1.33;;
22378;SDS011;11357;49.990;7.370;2023-02-26T16:25:03;1.23;;;0.90;;
22378;SDS011;11357;49.990;7.370;2023-02-26T16:27:31;3.37;;;1.40;;
22378;SDS011;11357;49.990;7.370;2023-02-26T16:29:58;2.97;;;1.10;;
22378;SDS011;11357;49.990;7.370;2023-02-26T16:32:27;1.33;;;1.07;;
22378;SDS011;11357;49.990;7.370;2023-02-26T16:34:56;3.10;;;1.27;;
22378;SDS011;11357;49.990;7.370;2023-02-26T16:39:51;0.80;;;0.80;;
22378;SDS011;11357;49.990;7.370;2023-02-26T16:42:33;1.83;;;1.20;;
22378;SDS011;11357;49.990;7.370;2023-02-26T16:47:51;3.00;;;1.00;;
22378;SDS011;11357;49.990;7.370;2023-02-26T16:50:23;0.80;;;0.80;;
22378;SDS011;11357;49.990;7.370;2023-02-26T16:52:59;3.97;;;1.10;;
22378;SDS011;11357;49.990;7.370;2023-02-26T16:55:30;1.37;;;0.90;;
22378;SDS011;11357;49.990;7.370;2023-02-26T16:57:59;1.30;;;1.10;;
22378;SDS011;11357;49.990;7.370;2023-02-26T17:00:30;2.07;;;1.20;;
22378;SDS011;11357;49.990;7.370;2023-02-26T17:11:26;2.60;;;1.10;;
22378;SDS011;11357;49.990;7.370;2023-02-26T17:14:27;3.67;;;1.27;;
22378;SDS011;11357;49.990;7.370;2023-02-26T17:16:49;1.40;;;1.10;;
22378;SDS011;11357;49.990;7.370;2023-02-26T17:19:16;2.47;;;1.50;;
22378;SDS011;11357;49.990;7.370;2023-02-26T17:21:44;1.63;;;1.23;;
22378;SDS011;11357;49.990;7.370;2023-02-26T17:24:17;2.53;;;1.30;;
22378;SDS011;11357;49.990;7.370;2023-02-26T17:27:09;3.23;;;1.07;;
22378;SDS011;11357;49.990;7.370;2023-02-26T17:29:39;4.43;;;1.20;;
22378;SDS011;11357;49.990;7.370;2023-02-26T17:32:25;1.40;;;0.83;;
22378;SDS011;11357;49.990;7.370;2023-02-26T17:34:52;2.67;;;0.93;;
22378;SDS011;11357;49.990;7.370;2023-02-26T17:37:19;1.53;;;1.40;;
22378;SDS011;11357;49.990;7.370;2023-02-26T17:39:45;0.97;;;0.87;;
22378;SDS011;11357;49.990;7.370;2023-02-26T17:42:12;1.00;;;0.90;;
22378;SDS011;11357;49.990;7.370;2023-02-26T17:44:41;2.47;;;0.97;;
22378;SDS011;11357;49.990;7.370;2023-02-26T17:50:06;2.13;;;1.10;;
22378;SDS011;11357;49.990;7.370;2023-02-26T17:52:54;1.17;;;0.90;;
22378;SDS011;11357;49.990;7.370;2023-02-26T17:55:21;2.40;;;1.10;;
22378;SDS011;11357;49.990;7.370;2023-02-26T17:57:47;2.20;;;1.00;;
22378;SDS011;11357;49.990;7.370;2023-02-26T18:00:15;1.40;;;1.20;;
22378;SDS011;11357;49.990;7.370;2023-02-26T18:02:41;2.07;;;0.87;;
22378;SDS011;11357;49.990;7.370;2023-02-26T18:05:07;2.40;;;0.90;;
22378;SDS011;11357;49.990;7.370;2023-02-26T18:07:34;2.30;;;1.17;;
22378;SDS011;11357;49.990;7.370;2023-02-26T18:10:01;1.20;;;0.90;;
22378;SDS011;11357;49.990;7.370;2023-02-26T18:12:27;4.33;;;1.23;;
22378;SDS011;11357;49.990;7.370;2023-02-26T18:14:53;1.93;;;1.10;;
22378;SDS011;11357;49.990;7.370;2023-02-26T18:17:23;2.27;;;0.90;;
22378;SDS011;11357;49.990;7.370;2023-02-26T18:19:51;2.50;;;1.10;;
22378;SDS011;11357;49.990;7.370;2023-02-26T18:22:18;1.93;;;1.00;;
22378;SDS011;11357;49.990;7.370;2023-02-26T18:24:48;0.87;;;0.73;;
22378;SDS011;11357;49.990;7.370;2023-02-26T18:27:15;2.43;;;1.00;;
22378;SDS011;11357;49.990;7.370;2023-02-26T18:29:44;2.90;;;1.00;;